Osterild, Denmark
Current Conditions -  °F | °C
As of 7:50 PM on Thursday 30 Oct 2014 (Local Time) from EKYT Reporting Station
Broken Clouds Broken Clouds  
Wind Chill:   Ceiling: 15000
Heat Index:   Visibility: 6mi
Dew Point:   Wind: 3mph
Humidity: 87%   Direction: 120°ESE
Pressure: 30.21"   Gusts: NA
Location:  57.03°N, 8.86°E
Report Text: EKYT 301850Z 12003KT 9999 FEW025 BKN150 08/06 Q1023
Loading
Personal Weather Stations






























Interactive Weather Map
Tropical Storm Tracking
New forecast layout! Learn more

10-Day Weather Forecast

Advertisements
Track Severe Weather on mobile